Kezdőlap
METAR-TAF:

METAR-TAF

Repülőterek :

Sztriginói repülőtér

Nyizsnyij Novgorod, Oroszország

földrajzi szélesség: 56-19-48N, földrajzi hosszúság: 044-00E, magasság: 78 m

Jelenlegi meteorológiai megfigyelések

A jelentés 30 perccel ezelõtt készült, 11:00 UTC
Dél-délnyugati szél 10 kt
Hőmérséklet -6°C
Páratartalom 86%
Légköri nyomás 1022 hPa
Látótávolság 10 km, vagy több
felhőtlen 1500 m magasságban, és nincs gomolyfelhõ

METAR: UWGG 131100Z 21005MPS CAVOK M06/M08 Q1022 R18L/090060 NOSIG

Idő: 14:30 (11:30 UTC)

Előrejelzés

A jelentés 39 perccel ezelõtt készült, 10:51 UTC
Az előrejelzés 13-én 12 óra UTC és 14-én 12 óra UTC között érvényes
Déli szél 6 kt
Látótávolság: 6000 m
Szórványos felhőzet 1600 lábon
14-én 06 óra UTC és 14-én 12 óra UTC között ideiglenes
Déli szél 10 kt széllökések: 19 kt

TAF: UWGG 131051Z 1312/1412 19003MPS 6000 SCT016 TXM04/1313Z TNM08/1406Z TEMPO 1406/1412 17005G10MPS

Meteorológiai megfigyelések és előrejelzések több, mint 4000 repülőtéren (METAR és TAF jelentéseket).

A térképen piros és sárga pontok jelzik az elérhető meteorológiai állomásokat.

Mozgassa az egeret a pont fölött, hogy megjelenjen az állomás neve.

Azután kattintson az időjárási megfigyelések és előrejelzések megtekintéséhez.

A térkép megváltoztatása: kattintson a fekete keresztel jelölt zöld gombra ráközelítéshez, a vonallal jelölt zöld gombra távolításhoz, vagy a zöld nyilakra a szomszédos térképek eléréséhez.


METAR-TAF: